sensor_id;sensor_type;location;lat;lon;timestamp;P1;durP1;ratioP1;P2;durP2;ratioP2
23718;SDS011;43322;52.230;5.702;2023-04-03T00:01:34;2.30;;;2.10;;
23718;SDS011;43322;52.230;5.702;2023-04-03T00:04:03;6.47;;;2.55;;
23718;SDS011;43322;52.230;5.702;2023-04-03T00:06:30;3.33;;;2.03;;
23718;SDS011;43322;52.230;5.702;2023-04-03T00:08:58;3.47;;;1.92;;
23718;SDS011;43322;52.230;5.702;2023-04-03T00:11:25;2.25;;;2.00;;
23718;SDS011;43322;52.230;5.702;2023-04-03T00:13:51;2.15;;;1.90;;
23718;SDS011;43322;52.230;5.702;2023-04-03T00:16:18;2.90;;;2.00;;
23718;SDS011;43322;52.230;5.702;2023-04-03T00:18:45;2.00;;;1.90;;
23718;SDS011;43322;52.230;5.702;2023-04-03T00:21:12;2.00;;;1.50;;
23718;SDS011;43322;52.230;5.702;2023-04-03T00:23:40;1.80;;;1.70;;
23718;SDS011;43322;52.230;5.702;2023-04-03T00:26:08;2.58;;;1.40;;
23718;SDS011;43322;52.230;5.702;2023-04-03T00:28:35;2.92;;;1.58;;
23718;SDS011;43322;52.230;5.702;2023-04-03T00:31:02;4.43;;;1.67;;
23718;SDS011;43322;52.230;5.702;2023-04-03T00:33:29;2.17;;;1.70;;
23718;SDS011;43322;52.230;5.702;2023-04-03T00:35:56;1.63;;;1.52;;
23718;SDS011;43322;52.230;5.702;2023-04-03T00:38:22;3.35;;;1.80;;
23718;SDS011;43322;52.230;5.702;2023-04-03T00:40:49;3.70;;;2.15;;
23718;SDS011;43322;52.230;5.702;2023-04-03T00:43:19;4.25;;;1.38;;
23718;SDS011;43322;52.230;5.702;2023-04-03T00:45:47;3.97;;;1.67;;
23718;SDS011;43322;52.230;5.702;2023-04-03T00:48:15;3.28;;;1.35;;
23718;SDS011;43322;52.230;5.702;2023-04-03T00:50:45;2.17;;;1.77;;
23718;SDS011;43322;52.230;5.702;2023-04-03T00:53:14;1.95;;;1.73;;
23718;SDS011;43322;52.230;5.702;2023-04-03T00:55:43;3.17;;;1.98;;
23718;SDS011;43322;52.230;5.702;2023-04-03T00:58:12;1.70;;;1.60;;
23718;SDS011;43322;52.230;5.702;2023-04-03T01:00:43;2.45;;;1.85;;
23718;SDS011;43322;52.230;5.702;2023-04-03T01:03:14;3.33;;;1.65;;
23718;SDS011;43322;52.230;5.702;2023-04-03T01:05:40;2.63;;;1.77;;
23718;SDS011;43322;52.230;5.702;2023-04-03T01:08:07;2.35;;;2.25;;
23718;SDS011;43322;52.230;5.702;2023-04-03T01:10:34;4.28;;;1.90;;
23718;SDS011;43322;52.230;5.702;2023-04-03T01:13:01;3.08;;;2.28;;
23718;SDS011;43322;52.230;5.702;2023-04-03T01:15:44;2.00;;;1.80;;
23718;SDS011;43322;52.230;5.702;2023-04-03T01:18:11;4.18;;;1.90;;
23718;SDS011;43322;52.230;5.702;2023-04-03T01:20:50;4.32;;;1.88;;
23718;SDS011;43322;52.230;5.702;2023-04-03T01:23:41;2.53;;;2.03;;
23718;SDS011;43322;52.230;5.702;2023-04-03T01:26:21;2.42;;;1.52;;
23718;SDS011;43322;52.230;5.702;2023-04-03T01:28:47;2.30;;;1.67;;
23718;SDS011;43322;52.230;5.702;2023-04-03T01:31:18;2.05;;;1.85;;
23718;SDS011;43322;52.230;5.702;2023-04-03T01:33:49;2.67;;;2.00;;
23718;SDS011;43322;52.230;5.702;2023-04-03T01:36:17;6.72;;;2.17;;
23718;SDS011;43322;52.230;5.702;2023-04-03T01:38:46;4.65;;;2.15;;
23718;SDS011;43322;52.230;5.702;2023-04-03T01:41:13;3.58;;;1.92;;
23718;SDS011;43322;52.230;5.702;2023-04-03T01:43:40;5.78;;;1.80;;
23718;SDS011;43322;52.230;5.702;2023-04-03T01:46:07;1.77;;;1.67;;
23718;SDS011;43322;52.230;5.702;2023-04-03T01:48:34;4.05;;;2.20;;
23718;SDS011;43322;52.230;5.702;2023-04-03T01:51:03;1.92;;;1.83;;
23718;SDS011;43322;52.230;5.702;2023-04-03T01:53:30;2.50;;;1.80;;
23718;SDS011;43322;52.230;5.702;2023-04-03T01:55:56;1.70;;;1.60;;
23718;SDS011;43322;52.230;5.702;2023-04-03T01:58:23;2.30;;;2.00;;
23718;SDS011;43322;52.230;5.702;2023-04-03T02:00:50;3.45;;;2.30;;
23718;SDS011;43322;52.230;5.702;2023-04-03T02:03:17;4.20;;;2.33;;
23718;SDS011;43322;52.230;5.702;2023-04-03T02:05:44;3.22;;;2.03;;
23718;SDS011;43322;52.230;5.702;2023-04-03T02:08:12;2.75;;;2.25;;
23718;SDS011;43322;52.230;5.702;2023-04-03T02:10:39;3.45;;;1.92;;
23718;SDS011;43322;52.230;5.702;2023-04-03T02:13:06;2.63;;;1.90;;
23718;SDS011;43322;52.230;5.702;2023-04-03T02:15:33;2.17;;;1.98;;
23718;SDS011;43322;52.230;5.702;2023-04-03T02:18:00;2.08;;;1.88;;
23718;SDS011;43322;52.230;5.702;2023-04-03T02:20:27;2.50;;;2.30;;
23718;SDS011;43322;52.230;5.702;2023-04-03T02:22:53;3.53;;;2.10;;
23718;SDS011;43322;52.230;5.702;2023-04-03T02:25:22;2.03;;;1.90;;
23718;SDS011;43322;52.230;5.702;2023-04-03T02:27:48;2.28;;;2.17;;
23718;SDS011;43322;52.230;5.702;2023-04-03T02:30:15;2.25;;;2.05;;
23718;SDS011;43322;52.230;5.702;2023-04-03T02:32:42;2.58;;;2.38;;
23718;SDS011;43322;52.230;5.702;2023-04-03T02:35:09;5.88;;;2.63;;
23718;SDS011;43322;52.230;5.702;2023-04-03T02:37:37;2.97;;;2.33;;
23718;SDS011;43322;52.230;5.702;2023-04-03T02:40:04;2.60;;;2.40;;
23718;SDS011;43322;52.230;5.702;2023-04-03T02:42:34;4.85;;;2.28;;
23718;SDS011;43322;52.230;5.702;2023-04-03T02:45:01;2.80;;;2.33;;
23718;SDS011;43322;52.230;5.702;2023-04-03T02:47:28;3.15;;;2.10;;
23718;SDS011;43322;52.230;5.702;2023-04-03T02:49:55;2.28;;;2.17;;
23718;SDS011;43322;52.230;5.702;2023-04-03T02:52:22;2.53;;;2.30;;
23718;SDS011;43322;52.230;5.702;2023-04-03T02:54:48;3.30;;;2.38;;
23718;SDS011;43322;52.230;5.702;2023-04-03T02:57:15;2.80;;;2.50;;
23718;SDS011;43322;52.230;5.702;2023-04-03T02:59:43;2.97;;;2.13;;
23718;SDS011;43322;52.230;5.702;2023-04-03T03:02:10;2.92;;;2.60;;
23718;SDS011;43322;52.230;5.702;2023-04-03T03:04:36;3.00;;;2.20;;
23718;SDS011;43322;52.230;5.702;2023-04-03T03:07:03;4.05;;;2.75;;
23718;SDS011;43322;52.230;5.702;2023-04-03T03:09:30;2.42;;;2.17;;
23718;SDS011;43322;52.230;5.702;2023-04-03T03:11:57;2.80;;;2.30;;
23718;SDS011;43322;52.230;5.702;2023-04-03T03:14:24;3.20;;;2.45;;
23718;SDS011;43322;52.230;5.702;2023-04-03T03:16:52;3.17;;;2.70;;
23718;SDS011;43322;52.230;5.702;2023-04-03T03:19:19;3.00;;;2.33;;
23718;SDS011;43322;52.230;5.702;2023-04-03T03:21:45;4.30;;;2.47;;
23718;SDS011;43322;52.230;5.702;2023-04-03T03:24:12;4.38;;;2.60;;
23718;SDS011;43322;52.230;5.702;2023-04-03T03:26:40;4.70;;;2.60;;
23718;SDS011;43322;52.230;5.702;2023-04-03T03:29:07;4.78;;;2.58;;
23718;SDS011;43322;52.230;5.702;2023-04-03T03:31:34;3.88;;;2.40;;
23718;SDS011;43322;52.230;5.702;2023-04-03T03:34:02;3.17;;;2.75;;
23718;SDS011;43322;52.230;5.702;2023-04-03T03:36:29;2.75;;;2.38;;
23718;SDS011;43322;52.230;5.702;2023-04-03T03:38:56;4.72;;;2.47;;
23718;SDS011;43322;52.230;5.702;2023-04-03T03:41:23;4.65;;;2.72;;
23718;SDS011;43322;52.230;5.702;2023-04-03T03:43:50;3.28;;;2.40;;
23718;SDS011;43322;52.230;5.702;2023-04-03T03:46:16;5.57;;;2.60;;
23718;SDS011;43322;52.230;5.702;2023-04-03T03:48:43;4.90;;;2.50;;
23718;SDS011;43322;52.230;5.702;2023-04-03T03:51:11;3.42;;;2.70;;
23718;SDS011;43322;52.230;5.702;2023-04-03T03:53:38;3.60;;;2.70;;
23718;SDS011;43322;52.230;5.702;2023-04-03T03:56:05;2.45;;;2.20;;
23718;SDS011;43322;52.230;5.702;2023-04-03T03:58:32;6.90;;;2.83;;
23718;SDS011;43322;52.230;5.702;2023-04-03T04:01:00;8.20;;;2.75;;
23718;SDS011;43322;52.230;5.702;2023-04-03T04:03:27;3.25;;;2.63;;
23718;SDS011;43322;52.230;5.702;2023-04-03T04:05:54;4.18;;;2.70;;
23718;SDS011;43322;52.230;5.702;2023-04-03T04:08:22;4.03;;;2.50;;
23718;SDS011;43322;52.230;5.702;2023-04-03T04:10:49;3.17;;;2.58;;
23718;SDS011;43322;52.230;5.702;2023-04-03T04:13:16;2.88;;;2.13;;
23718;SDS011;43322;52.230;5.702;2023-04-03T04:15:43;2.72;;;2.33;;
23718;SDS011;43322;52.230;5.702;2023-04-03T04:18:10;5.05;;;2.92;;
23718;SDS011;43322;52.230;5.702;2023-04-03T04:20:37;3.33;;;2.40;;
23718;SDS011;43322;52.230;5.702;2023-04-03T04:23:04;3.20;;;2.90;;
23718;SDS011;43322;52.230;5.702;2023-04-03T04:25:32;3.13;;;2.67;;
23718;SDS011;43322;52.230;5.702;2023-04-03T04:27:58;5.70;;;2.47;;
23718;SDS011;43322;52.230;5.702;2023-04-03T04:30:25;4.53;;;2.85;;
23718;SDS011;43322;52.230;5.702;2023-04-03T04:32:52;2.72;;;2.53;;
23718;SDS011;43322;52.230;5.702;2023-04-03T04:35:19;6.30;;;3.00;;
23718;SDS011;43322;52.230;5.702;2023-04-03T04:37:46;8.32;;;2.60;;
23718;SDS011;43322;52.230;5.702;2023-04-03T04:40:12;7.50;;;2.80;;
23718;SDS011;43322;52.230;5.702;2023-04-03T04:42:41;3.85;;;2.42;;
23718;SDS011;43322;52.230;5.702;2023-04-03T04:45:08;5.57;;;3.33;;
23718;SDS011;43322;52.230;5.702;2023-04-03T04:47:35;4.03;;;2.60;;
23718;SDS011;43322;52.230;5.702;2023-04-03T04:50:02;3.65;;;3.00;;
23718;SDS011;43322;52.230;5.702;2023-04-03T04:52:29;3.50;;;2.63;;
23718;SDS011;43322;52.230;5.702;2023-04-03T04:54:56;6.85;;;3.05;;
23718;SDS011;43322;52.230;5.702;2023-04-03T04:57:22;5.43;;;2.92;;
23718;SDS011;43322;52.230;5.702;2023-04-03T04:59:51;3.45;;;2.85;;
23718;SDS011;43322;52.230;5.702;2023-04-03T05:02:17;4.90;;;2.80;;
23718;SDS011;43322;52.230;5.702;2023-04-03T05:04:44;5.18;;;3.22;;
23718;SDS011;43322;52.230;5.702;2023-04-03T05:07:11;4.47;;;2.85;;
23718;SDS011;43322;52.230;5.702;2023-04-03T05:09:38;6.07;;;3.50;;
23718;SDS011;43322;52.230;5.702;2023-04-03T05:12:07;5.55;;;3.00;;
23718;SDS011;43322;52.230;5.702;2023-04-03T05:14:33;8.18;;;2.92;;
23718;SDS011;43322;52.230;5.702;2023-04-03T05:17:02;7.80;;;3.20;;
23718;SDS011;43322;52.230;5.702;2023-04-03T05:19:29;5.80;;;3.05;;
23718;SDS011;43322;52.230;5.702;2023-04-03T05:21:55;3.67;;;2.92;;
23718;SDS011;43322;52.230;5.702;2023-04-03T05:24:22;4.45;;;3.58;;
23718;SDS011;43322;52.230;5.702;2023-04-03T05:26:49;4.03;;;2.88;;
23718;SDS011;43322;52.230;5.702;2023-04-03T05:29:16;3.50;;;3.17;;
23718;SDS011;43322;52.230;5.702;2023-04-03T05:31:43;3.20;;;2.97;;
23718;SDS011;43322;52.230;5.702;2023-04-03T05:34:11;3.90;;;2.88;;
23718;SDS011;43322;52.230;5.702;2023-04-03T05:36:37;4.78;;;2.72;;
23718;SDS011;43322;52.230;5.702;2023-04-03T05:39:04;3.28;;;2.83;;
23718;SDS011;43322;52.230;5.702;2023-04-03T05:41:31;4.40;;;2.95;;
23718;SDS011;43322;52.230;5.702;2023-04-03T05:43:58;5.45;;;3.33;;
23718;SDS011;43322;52.230;5.702;2023-04-03T05:46:25;5.25;;;3.38;;
23718;SDS011;43322;52.230;5.702;2023-04-03T05:48:52;4.57;;;3.00;;
23718;SDS011;43322;52.230;5.702;2023-04-03T05:51:22;6.68;;;3.38;;
23718;SDS011;43322;52.230;5.702;2023-04-03T05:53:51;7.13;;;2.97;;
23718;SDS011;43322;52.230;5.702;2023-04-03T05:56:21;4.97;;;2.63;;
23718;SDS011;43322;52.230;5.702;2023-04-03T05:58:48;5.07;;;3.38;;
23718;SDS011;43322;52.230;5.702;2023-04-03T06:01:15;2.78;;;2.55;;
23718;SDS011;43322;52.230;5.702;2023-04-03T06:03:42;3.20;;;2.88;;
23718;SDS011;43322;52.230;5.702;2023-04-03T06:06:10;5.25;;;2.55;;
23718;SDS011;43322;52.230;5.702;2023-04-03T06:08:40;5.38;;;3.22;;
23718;SDS011;43322;52.230;5.702;2023-04-03T06:11:08;3.60;;;2.83;;
23718;SDS011;43322;52.230;5.702;2023-04-03T06:13:35;4.28;;;3.00;;
23718;SDS011;43322;52.230;5.702;2023-04-03T06:16:04;3.45;;;2.85;;
23718;SDS011;43322;52.230;5.702;2023-04-03T06:18:31;4.60;;;2.80;;
23718;SDS011;43322;52.230;5.702;2023-04-03T06:20:58;2.55;;;2.35;;
23718;SDS011;43322;52.230;5.702;2023-04-03T06:23:25;4.45;;;2.72;;
23718;SDS011;43322;52.230;5.702;2023-04-03T06:25:53;2.90;;;2.53;;
23718;SDS011;43322;52.230;5.702;2023-04-03T06:28:20;6.63;;;3.10;;
23718;SDS011;43322;52.230;5.702;2023-04-03T06:30:47;3.70;;;2.92;;
23718;SDS011;43322;52.230;5.702;2023-04-03T06:33:14;4.15;;;3.08;;
23718;SDS011;43322;52.230;5.702;2023-04-03T06:35:40;4.68;;;2.95;;
23718;SDS011;43322;52.230;5.702;2023-04-03T06:38:08;5.47;;;2.72;;
23718;SDS011;43322;52.230;5.702;2023-04-03T06:40:36;6.63;;;2.70;;
23718;SDS011;43322;52.230;5.702;2023-04-03T06:43:04;3.15;;;2.85;;
23718;SDS011;43322;52.230;5.702;2023-04-03T06:45:32;3.78;;;2.83;;
23718;SDS011;43322;52.230;5.702;2023-04-03T06:47:59;5.00;;;3.00;;
23718;SDS011;43322;52.230;5.702;2023-04-03T06:50:26;4.30;;;2.65;;
23718;SDS011;43322;52.230;5.702;2023-04-03T06:52:53;3.95;;;2.88;;
23718;SDS011;43322;52.230;5.702;2023-04-03T06:55:19;5.50;;;2.60;;
23718;SDS011;43322;52.230;5.702;2023-04-03T06:57:46;7.55;;;3.30;;
23718;SDS011;43322;52.230;5.702;2023-04-03T07:00:15;3.80;;;2.42;;
23718;SDS011;43322;52.230;5.702;2023-04-03T07:02:42;2.60;;;2.40;;
23718;SDS011;43322;52.230;5.702;2023-04-03T07:05:09;3.97;;;2.50;;
23718;SDS011;43322;52.230;5.702;2023-04-03T07:07:36;3.80;;;2.10;;
23718;SDS011;43322;52.230;5.702;2023-04-03T07:10:03;3.95;;;2.28;;
23718;SDS011;43322;52.230;5.702;2023-04-03T07:12:31;4.03;;;2.60;;
23718;SDS011;43322;52.230;5.702;2023-04-03T07:14:58;2.22;;;1.88;;
23718;SDS011;43322;52.230;5.702;2023-04-03T07:17:26;4.45;;;2.10;;
23718;SDS011;43322;52.230;5.702;2023-04-03T07:19:53;2.58;;;1.92;;
23718;SDS011;43322;52.230;5.702;2023-04-03T07:22:19;5.10;;;2.40;;
23718;SDS011;43322;52.230;5.702;2023-04-03T07:24:46;3.40;;;2.20;;
23718;SDS011;43322;52.230;5.702;2023-04-03T07:27:13;5.45;;;2.13;;
23718;SDS011;43322;52.230;5.702;2023-04-03T07:29:40;2.75;;;2.00;;
23718;SDS011;43322;52.230;5.702;2023-04-03T07:32:07;6.57;;;2.28;;
23718;SDS011;43322;52.230;5.702;2023-04-03T07:34:36;4.15;;;2.25;;
23718;SDS011;43322;52.230;5.702;2023-04-03T07:37:03;2.60;;;2.00;;
23718;SDS011;43322;52.230;5.702;2023-04-03T07:39:29;4.10;;;1.80;;
23718;SDS011;43322;52.230;5.702;2023-04-03T07:41:56;2.92;;;1.95;;
23718;SDS011;43322;52.230;5.702;2023-04-03T07:44:23;2.17;;;1.90;;
23718;SDS011;43322;52.230;5.702;2023-04-03T07:46:51;2.72;;;1.80;;
23718;SDS011;43322;52.230;5.702;2023-04-03T07:49:18;4.60;;;1.92;;
23718;SDS011;43322;52.230;5.702;2023-04-03T07:51:46;3.53;;;2.28;;
23718;SDS011;43322;52.230;5.702;2023-04-03T07:54:13;2.17;;;1.88;;
23718;SDS011;43322;52.230;5.702;2023-04-03T07:56:40;3.40;;;1.75;;
23718;SDS011;43322;52.230;5.702;2023-04-03T07:59:07;2.95;;;2.05;;
23718;SDS011;43322;52.230;5.702;2023-04-03T08:01:35;1.80;;;1.70;;
23718;SDS011;43322;52.230;5.702;2023-04-03T08:04:02;2.45;;;1.63;;
23718;SDS011;43322;52.230;5.702;2023-04-03T08:06:30;4.50;;;1.88;;
23718;SDS011;43322;52.230;5.702;2023-04-03T08:09:00;3.00;;;1.75;;
23718;SDS011;43322;52.230;5.702;2023-04-03T08:11:27;2.75;;;1.70;;
23718;SDS011;43322;52.230;5.702;2023-04-03T08:13:53;6.20;;;2.00;;
23718;SDS011;43322;52.230;5.702;2023-04-03T08:16:22;1.67;;;1.58;;
23718;SDS011;43322;52.230;5.702;2023-04-03T08:18:50;2.92;;;1.95;;
23718;SDS011;43322;52.230;5.702;2023-04-03T08:21:17;5.70;;;1.83;;
23718;SDS011;43322;52.230;5.702;2023-04-03T08:23:43;2.88;;;1.90;;
23718;SDS011;43322;52.230;5.702;2023-04-03T08:26:12;2.85;;;1.63;;
23718;SDS011;43322;52.230;5.702;2023-04-03T08:28:40;1.58;;;1.33;;
23718;SDS011;43322;52.230;5.702;2023-04-03T08:31:09;3.08;;;1.33;;
23718;SDS011;43322;52.230;5.702;2023-04-03T08:33:39;3.85;;;2.00;;
23718;SDS011;43322;52.230;5.702;2023-04-03T08:36:07;2.00;;;1.90;;
23718;SDS011;43322;52.230;5.702;2023-04-03T08:38:41;2.05;;;1.48;;
23718;SDS011;43322;52.230;5.702;2023-04-03T08:41:13;1.75;;;1.40;;
23718;SDS011;43322;52.230;5.702;2023-04-03T08:43:47;5.10;;;1.55;;
23718;SDS011;43322;52.230;5.702;2023-04-03T08:46:24;3.38;;;1.50;;
23718;SDS011;43322;52.230;5.702;2023-04-03T08:49:01;1.70;;;1.25;;
23718;SDS011;43322;52.230;5.702;2023-04-03T08:51:28;2.78;;;1.30;;
23718;SDS011;43322;52.230;5.702;2023-04-03T08:53:56;1.88;;;1.30;;
23718;SDS011;43322;52.230;5.702;2023-04-03T08:56:29;2.95;;;1.27;;
23718;SDS011;43322;52.230;5.702;2023-04-03T08:58:58;1.83;;;1.08;;
23718;SDS011;43322;52.230;5.702;2023-04-03T09:01:27;1.38;;;1.27;;
23718;SDS011;43322;52.230;5.702;2023-04-03T09:04:00;2.50;;;0.90;;
23718;SDS011;43322;52.230;5.702;2023-04-03T09:06:28;0.57;;;0.57;;
23718;SDS011;43322;52.230;5.702;2023-04-03T09:09:02;0.73;;;0.70;;
23718;SDS011;43322;52.230;5.702;2023-04-03T09:11:43;0.68;;;0.68;;
23718;SDS011;43322;52.230;5.702;2023-04-03T09:14:16;2.58;;;0.75;;
23718;SDS011;43322;52.230;5.702;2023-04-03T09:16:52;1.10;;;1.00;;
23718;SDS011;43322;52.230;5.702;2023-04-03T09:19:22;2.05;;;0.90;;
23718;SDS011;43322;52.230;5.702;2023-04-03T09:22:02;0.68;;;0.68;;
23718;SDS011;43322;52.230;5.702;2023-04-03T09:24:42;0.85;;;0.80;;
23718;SDS011;43322;52.230;5.702;2023-04-03T09:27:12;0.85;;;0.70;;
23718;SDS011;43322;52.230;5.702;2023-04-03T09:29:40;1.35;;;0.95;;
23718;SDS011;43322;52.230;5.702;2023-04-03T09:32:21;0.90;;;0.88;;
23718;SDS011;43322;52.230;5.702;2023-04-03T09:34:52;1.27;;;0.68;;
23718;SDS011;43322;52.230;5.702;2023-04-03T09:37:35;1.02;;;0.85;;
23718;SDS011;43322;52.230;5.702;2023-04-03T09:40:04;1.85;;;0.80;;
23718;SDS011;43322;52.230;5.702;2023-04-03T09:42:45;0.80;;;0.80;;
23718;SDS011;43322;52.230;5.702;2023-04-03T09:45:22;3.50;;;0.82;;
23718;SDS011;43322;52.230;5.702;2023-04-03T09:47:57;2.63;;;0.70;;
23718;SDS011;43322;52.230;5.702;2023-04-03T09:50:32;1.50;;;0.95;;
23718;SDS011;43322;52.230;5.702;2023-04-03T09:53:04;2.47;;;0.80;;
23718;SDS011;43322;52.230;5.702;2023-04-03T09:55:32;1.30;;;0.75;;
23718;SDS011;43322;52.230;5.702;2023-04-03T09:58:22;1.35;;;0.60;;
23718;SDS011;43322;52.230;5.702;2023-04-03T10:00:53;3.30;;;0.70;;
23718;SDS011;43322;52.230;5.702;2023-04-03T10:03:23;0.80;;;0.60;;
23718;SDS011;43322;52.230;5.702;2023-04-03T10:05:53;2.40;;;0.77;;
23718;SDS011;43322;52.230;5.702;2023-04-03T10:08:21;8.35;;;0.75;;
23718;SDS011;43322;52.230;5.702;2023-04-03T10:11:05;0.60;;;0.60;;
23718;SDS011;43322;52.230;5.702;2023-04-03T10:13:54;0.93;;;0.75;;
23718;SDS011;43322;52.230;5.702;2023-04-03T10:16:25;0.82;;;0.82;;
23718;SDS011;43322;52.230;5.702;2023-04-03T10:18:58;0.82;;;0.82;;
23718;SDS011;43322;52.230;5.702;2023-04-03T10:21:39;0.77;;;0.70;;
23718;SDS011;43322;52.230;5.702;2023-04-03T10:24:13;0.70;;;0.70;;
23718;SDS011;43322;52.230;5.702;2023-04-03T10:26:48;1.50;;;0.98;;
23718;SDS011;43322;52.230;5.702;2023-04-03T10:29:38;0.95;;;0.80;;
23718;SDS011;43322;52.230;5.702;2023-04-03T10:35:06;1.58;;;0.82;;
23718;SDS011;43322;52.230;5.702;2023-04-03T10:37:42;1.08;;;0.70;;
23718;SDS011;43322;52.230;5.702;2023-04-03T10:40:20;0.77;;;0.73;;
23718;SDS011;43322;52.230;5.702;2023-04-03T10:42:57;0.95;;;0.82;;
23718;SDS011;43322;52.230;5.702;2023-04-03T10:45:32;1.65;;;0.68;;
23718;SDS011;43322;52.230;5.702;2023-04-03T10:48:25;1.13;;;0.70;;
23718;SDS011;43322;52.230;5.702;2023-04-03T10:51:08;1.15;;;0.80;;
23718;SDS011;43322;52.230;5.702;2023-04-03T10:53:48;1.10;;;1.02;;
23718;SDS011;43322;52.230;5.702;2023-04-03T10:56:22;1.20;;;1.00;;
23718;SDS011;43322;52.230;5.702;2023-04-03T10:58:57;0.70;;;0.70;;
23718;SDS011;43322;52.230;5.702;2023-04-03T11:01:42;0.65;;;0.65;;
23718;SDS011;43322;52.230;5.702;2023-04-03T11:04:12;0.65;;;0.65;;
23718;SDS011;43322;52.230;5.702;2023-04-03T11:06:42;0.73;;;0.73;;
23718;SDS011;43322;52.230;5.702;2023-04-03T11:09:16;0.70;;;0.70;;
23718;SDS011;43322;52.230;5.702;2023-04-03T11:11:49;0.70;;;0.70;;
23718;SDS011;43322;52.230;5.702;2023-04-03T11:14:22;0.95;;;0.95;;
23718;SDS011;43322;52.230;5.702;2023-04-03T11:16:55;3.13;;;0.73;;
23718;SDS011;43322;52.230;5.702;2023-04-03T11:19:47;1.02;;;0.90;;
23718;SDS011;43322;52.230;5.702;2023-04-03T11:22:20;1.02;;;0.80;;
23718;SDS011;43322;52.230;5.702;2023-04-03T11:24:52;0.70;;;0.70;;
23718;SDS011;43322;52.230;5.702;2023-04-03T11:27:24;1.10;;;0.80;;
23718;SDS011;43322;52.230;5.702;2023-04-03T11:29:55;0.80;;;0.80;;
23718;SDS011;43322;52.230;5.702;2023-04-03T11:32:36;0.77;;;0.77;;
23718;SDS011;43322;52.230;5.702;2023-04-03T11:35:29;4.43;;;0.80;;
23718;SDS011;43322;52.230;5.702;2023-04-03T11:37:58;0.77;;;0.77;;
23718;SDS011;43322;52.230;5.702;2023-04-03T11:40:28;0.80;;;0.80;;
23718;SDS011;43322;52.230;5.702;2023-04-03T11:43:03;0.88;;;0.80;;
23718;SDS011;43322;52.230;5.702;2023-04-03T11:45:36;2.10;;;0.80;;
23718;SDS011;43322;52.230;5.702;2023-04-03T11:48:06;0.98;;;0.82;;
23718;SDS011;43322;52.230;5.702;2023-04-03T11:54:42;0.80;;;0.77;;
23718;SDS011;43322;52.230;5.702;2023-04-03T12:12:42;1.58;;;0.82;;
23718;SDS011;43322;52.230;5.702;2023-04-03T12:15:23;0.93;;;0.77;;
23718;SDS011;43322;52.230;5.702;2023-04-03T12:17:53;0.80;;;0.80;;
23718;SDS011;43322;52.230;5.702;2023-04-03T12:23:29;2.47;;;0.80;;
23718;SDS011;43322;52.230;5.702;2023-04-03T12:26:04;1.27;;;0.88;;
23718;SDS011;43322;52.230;5.702;2023-04-03T12:28:44;1.88;;;1.00;;
23718;SDS011;43322;52.230;5.702;2023-04-03T12:31:13;0.98;;;0.80;;
23718;SDS011;43322;52.230;5.702;2023-04-03T12:33:46;1.05;;;0.80;;
23718;SDS011;43322;52.230;5.702;2023-04-03T12:36:26;3.92;;;0.95;;
23718;SDS011;43322;52.230;5.702;2023-04-03T12:42:18;0.90;;;0.90;;
23718;SDS011;43322;52.230;5.702;2023-04-03T12:45:10;0.85;;;0.70;;
23718;SDS011;43322;52.230;5.702;2023-04-03T12:47:45;0.90;;;0.90;;
23718;SDS011;43322;52.230;5.702;2023-04-03T12:50:20;1.20;;;1.02;;
23718;SDS011;43322;52.230;5.702;2023-04-03T12:52:51;0.73;;;0.68;;
23718;SDS011;43322;52.230;5.702;2023-04-03T12:55:24;1.42;;;0.85;;
23718;SDS011;43322;52.230;5.702;2023-04-03T12:57:51;0.90;;;0.90;;
23718;SDS011;43322;52.230;5.702;2023-04-03T13:00:19;1.20;;;0.90;;
23718;SDS011;43322;52.230;5.702;2023-04-03T13:02:48;1.85;;;0.85;;
23718;SDS011;43322;52.230;5.702;2023-04-03T13:05:16;1.70;;;1.02;;
23718;SDS011;43322;52.230;5.702;2023-04-03T13:07:45;1.70;;;1.20;;
23718;SDS011;43322;52.230;5.702;2023-04-03T13:10:16;1.77;;;1.15;;
23718;SDS011;43322;52.230;5.702;2023-04-03T13:12:49;3.47;;;1.25;;
23718;SDS011;43322;52.230;5.702;2023-04-03T13:15:19;1.00;;;1.00;;
23718;SDS011;43322;52.230;5.702;2023-04-03T13:17:47;1.40;;;1.30;;
23718;SDS011;43322;52.230;5.702;2023-04-03T13:20:19;0.95;;;0.90;;
23718;SDS011;43322;52.230;5.702;2023-04-03T13:22:49;1.85;;;1.00;;
23718;SDS011;43322;52.230;5.702;2023-04-03T13:25:21;2.15;;;0.90;;
23718;SDS011;43322;52.230;5.702;2023-04-03T13:27:51;1.83;;;1.13;;
23718;SDS011;43322;52.230;5.702;2023-04-03T13:30:20;1.10;;;0.93;;
23718;SDS011;43322;52.230;5.702;2023-04-03T13:32:50;3.45;;;1.50;;
23718;SDS011;43322;52.230;5.702;2023-04-03T13:38:20;1.17;;;1.00;;
23718;SDS011;43322;52.230;5.702;2023-04-03T13:40:49;2.67;;;1.30;;
23718;SDS011;43322;52.230;5.702;2023-04-03T13:43:20;1.52;;;1.27;;
23718;SDS011;43322;52.230;5.702;2023-04-03T13:45:57;1.90;;;1.20;;
23718;SDS011;43322;52.230;5.702;2023-04-03T13:48:26;1.58;;;1.00;;
23718;SDS011;43322;52.230;5.702;2023-04-03T13:50:54;2.38;;;1.33;;
23718;SDS011;43322;52.230;5.702;2023-04-03T13:53:24;2.53;;;0.95;;
23718;SDS011;43322;52.230;5.702;2023-04-03T13:55:54;2.42;;;1.23;;
23718;SDS011;43322;52.230;5.702;2023-04-03T13:58:24;1.60;;;1.17;;
23718;SDS011;43322;52.230;5.702;2023-04-03T14:00:53;1.58;;;1.00;;
23718;SDS011;43322;52.230;5.702;2023-04-03T14:03:22;5.03;;;1.48;;
23718;SDS011;43322;52.230;5.702;2023-04-03T14:05:52;1.15;;;1.00;;
23718;SDS011;43322;52.230;5.702;2023-04-03T14:08:19;2.88;;;1.40;;
23718;SDS011;43322;52.230;5.702;2023-04-03T14:10:47;1.40;;;1.30;;
23718;SDS011;43322;52.230;5.702;2023-04-03T14:13:15;1.17;;;1.05;;
23718;SDS011;43322;52.230;5.702;2023-04-03T14:15:46;1.45;;;1.25;;
23718;SDS011;43322;52.230;5.702;2023-04-03T14:18:16;1.75;;;1.50;;
23718;SDS011;43322;52.230;5.702;2023-04-03T14:20:44;3.25;;;1.55;;
23718;SDS011;43322;52.230;5.702;2023-04-03T14:23:12;5.15;;;1.48;;
23718;SDS011;43322;52.230;5.702;2023-04-03T14:25:39;2.72;;;1.67;;
23718;SDS011;43322;52.230;5.702;2023-04-03T14:28:12;1.77;;;1.40;;
23718;SDS011;43322;52.230;5.702;2023-04-03T14:30:42;2.63;;;1.40;;
23718;SDS011;43322;52.230;5.702;2023-04-03T14:33:11;1.83;;;1.73;;
23718;SDS011;43322;52.230;5.702;2023-04-03T14:35:40;4.65;;;1.52;;
23718;SDS011;43322;52.230;5.702;2023-04-03T14:38:12;2.70;;;1.35;;
23718;SDS011;43322;52.230;5.702;2023-04-03T14:40:46;3.75;;;1.50;;
23718;SDS011;43322;52.230;5.702;2023-04-03T14:43:13;3.63;;;1.45;;
23718;SDS011;43322;52.230;5.702;2023-04-03T14:45:40;1.85;;;1.25;;
23718;SDS011;43322;52.230;5.702;2023-04-03T14:48:09;1.55;;;1.45;;
23718;SDS011;43322;52.230;5.702;2023-04-03T14:50:42;1.35;;;1.25;;
23718;SDS011;43322;52.230;5.702;2023-04-03T14:53:09;3.35;;;1.52;;
23718;SDS011;43322;52.230;5.702;2023-04-03T14:55:39;2.60;;;1.40;;
23718;SDS011;43322;52.230;5.702;2023-04-03T14:58:08;2.00;;;1.48;;
23718;SDS011;43322;52.230;5.702;2023-04-03T15:00:37;1.55;;;1.30;;
23718;SDS011;43322;52.230;5.702;2023-04-03T15:03:04;1.80;;;1.70;;
23718;SDS011;43322;52.230;5.702;2023-04-03T15:05:32;3.63;;;1.30;;
23718;SDS011;43322;52.230;5.702;2023-04-03T15:08:02;2.35;;;1.70;;
23718;SDS011;43322;52.230;5.702;2023-04-03T15:10:30;2.22;;;1.55;;
23718;SDS011;43322;52.230;5.702;2023-04-03T15:12:57;2.35;;;1.42;;
23718;SDS011;43322;52.230;5.702;2023-04-03T15:15:27;1.33;;;1.23;;
23718;SDS011;43322;52.230;5.702;2023-04-03T15:17:55;2.60;;;1.55;;
23718;SDS011;43322;52.230;5.702;2023-04-03T15:20:24;2.28;;;1.30;;
23718;SDS011;43322;52.230;5.702;2023-04-03T15:22:53;1.65;;;1.55;;
23718;SDS011;43322;52.230;5.702;2023-04-03T15:25:22;5.68;;;1.33;;
23718;SDS011;43322;52.230;5.702;2023-04-03T15:27:49;1.95;;;1.60;;
23718;SDS011;43322;52.230;5.702;2023-04-03T15:30:17;1.67;;;1.27;;
23718;SDS011;43322;52.230;5.702;2023-04-03T15:32:44;3.00;;;1.50;;
23718;SDS011;43322;52.230;5.702;2023-04-03T15:35:11;1.30;;;1.20;;